Latest Weather Observations for St Lawrence

IDQ60801

Issued at 4:32 pm EST Thursday 24 August 2017 (issued every 30 minutes, with the page automatically refreshed every 10 minutes)

About weather observations | Map of weather stations | Latest weather observations for QLD | Other Formats
Station Details ID: 033210 Name: ST LAWRENCE Lat: -22.35 Lon: 149.52 Height: 9.19 m
Data from the previous 72 hours. | See also: Recent months at St Lawrence
Date/Time
EST
Temp
°C
App
Temp
°C
Dew
Point
°C
Rel
Hum
%
Delta-T
°C
Wind Press
QNH
hPa
Press
MSL
hPa
Rain since
9am
mm
Dir  Spd
km/h
Gust
km/h
Spd
kts
Gust
kts
24/04:30pm 24.0 23.2 16.0 61 4.9 NNE 15 20 8 11 1014.1 1014.1 0.0
24/04:00pm 24.1 22.2 15.3 58 5.3 NE 19 24 10 13 1013.7 1013.7 0.0
24/03:30pm 24.7 22.8 15.1 55 5.8 NNE 19 24 10 13 1013.8 1013.8 0.0
24/03:00pm 24.8 22.6 14.3 52 6.2 NNE 19 28 10 15 1013.8 1013.8 0.0
24/02:30pm 24.5 22.3 14.9 55 5.7 NNE 20 30 11 16 1014.0 1014.0 0.0
24/02:00pm 24.5 22.4 15.1 55 5.6 NNE 20 26 11 14 1014.4 1014.4 0.0
24/01:30pm 25.0 22.9 15.3 55 5.8 NNE 20 28 11 15 1014.8 1014.8 0.0
24/01:00pm 25.1 23.0 15.1 53 6.0 NE 20 28 11 15 1015.3 1015.3 0.0
24/12:30pm 25.2 23.3 15.2 54 6.0 NNE 19 28 10 15 1015.8 1015.8 0.0
24/12:00pm 24.9 23.4 15.2 54 5.8 NNE 17 20 9 11 1016.4 1016.4 0.0
24/11:30am 24.7 22.8 15.3 56 5.7 NNE 19 24 10 13 1016.7 1016.7 0.0
24/11:00am 24.5 22.9 15.1 55 5.6 NNE 17 24 9 13 1017.2 1017.2 0.0
24/10:30am 24.6 23.1 15.2 55 5.6 NE 17 22 9 12 1017.4 1017.4 0.0
24/10:00am 24.1 23.7 15.3 58 5.3 N 11 15 6 8 1017.8 1017.8 0.0
24/09:30am 23.6 23.7 15.4 60 4.9 NE 9 13 5 7 1018.2 1018.2 0.0
24/09:00am 22.4 23.5 15.5 65 4.1 WNW 4 9 2 5 1018.2 1018.2 0.0
24/08:30am 20.4 21.3 16.0 76 2.6 SW 6 7 3 4 1018.2 1018.2 0.0
24/08:00am 18.2 20.0 15.6 85 1.5 CALM 0 0 0 0 1018.0 1018.0 0.0
24/07:30am 15.5 16.0 14.0 91 0.8 WSW 4 7 2 4 1017.9 1017.9 0.0
24/07:00am 14.3 14.6 13.3 94 0.6 SW 4 7 2 4 1017.8 1017.8 0.0
24/06:30am 13.0 13.4 11.2 89 0.9 CALM 0 7 0 4 1017.4 1017.4 0.0
24/06:00am 13.7 14.1 12.4 92 0.7 SW 2 6 1 3 1017.0 1017.0 0.0
24/05:30am 14.1 14.3 13.0 93 0.6 SW 4 6 2 3 1016.7 1016.7 0.0
24/05:00am 13.6 14.3 12.3 92 0.7 CALM 0 6 0 3 1016.7 1016.7 0.0
24/04:30am 13.5 14.2 12.1 91 0.8 CALM 0 0 0 0 1016.6 1016.6 0.0
24/04:00am 13.7 14.4 12.3 91 0.8 CALM 0 0 0 0 1016.7 1016.7 0.0
24/03:30am 14.2 15.0 12.4 89 1.0 CALM 0 0 0 0 1016.8 1016.8 0.0
24/03:00am 14.6 14.4 13.0 90 0.9 SW 6 7 3 4 1017.0 1017.0 0.0
24/02:30am 14.4 15.2 12.6 89 1.0 CALM 0 0 0 0 1017.4 1017.4 0.0
24/02:00am 14.7 15.5 12.7 88 1.1 CALM 0 0 0 0 1017.6 1017.6 0.0
24/01:30am 14.9 14.4 12.6 86 1.3 WSW 7 7 4 4 1018.1 1018.1 0.0
24/01:00am 15.1 15.7 13.0 87 1.2 SW 2 9 1 5 1018.4 1018.4 0.0
24/12:30am 15.0 15.3 13.4 90 0.9 SW 4 7 2 4 1018.7 1018.7 0.0
24/12:00am 15.2 15.3 13.9 92 0.7 SW 6 7 3 4 1018.7 1018.7 0.0
 
Date/Time
EST
Temp
°C
App
Temp
°C
Dew
Point
°C
Rel
Hum
%
Delta-T
°C
Wind Press
QNH
hPa
Press
MSL
hPa
Rain since
9am
mm
Dir  Spd
km/h
Gust
km/h
Spd
kts
Gust
kts
23/11:30pm 15.0 15.0 13.5 91 0.8 WSW 6 7 3 4 1018.9 1018.9 0.0
23/11:00pm 15.5 16.8 14.0 91 0.8 CALM 0 0 0 0 1018.9 1018.9 0.0
23/10:30pm 15.6 16.8 13.8 89 1.0 CALM 0 0 0 0 1018.8 1018.8 0.0
23/10:00pm 16.2 17.4 13.7 85 1.4 CALM 0 0 0 0 1018.7 1018.7 0.0
23/09:30pm 16.4 17.8 14.4 88 1.1 CALM 0 0 0 0 1018.6 1018.6 0.0
23/09:00pm 17.3 18.9 14.8 85 1.4 CALM 0 0 0 0 1018.6 1018.6 0.0
23/08:30pm 18.0 19.7 15.1 83 1.7 CALM 0 0 0 0 1018.5 1018.5 0.0
23/08:00pm 18.7 19.5 15.8 83 1.7 NE 6 6 3 3 1018.4 1018.4 0.0
23/07:30pm 19.4 20.1 15.7 79 2.2 NE 6 9 3 5 1018.3 1018.3 0.0
23/07:00pm 20.1 20.7 15.9 77 2.5 NE 7 11 4 6 1018.0 1018.0 0.0
23/06:30pm 20.7 21.0 16.1 75 2.8 NE 9 15 5 8 1017.8 1017.8 0.0
23/06:00pm 21.5 21.8 16.0 71 3.3 NNE 9 15 5 8 1017.7 1017.7 0.0
23/05:30pm 22.6 22.1 15.0 62 4.5 NNE 11 17 6 9 1017.5 1017.5 0.0
23/05:00pm 23.6 22.0 14.9 58 5.2 NNE 17 20 9 11 1017.3 1017.3 0.0
23/04:30pm 24.0 22.8 15.0 57 5.4 NNE 15 19 8 10 1017.0 1017.0 0.0
23/04:00pm 25.0 23.6 14.5 52 6.2 NNE 15 20 8 11 1017.2 1017.2 0.0
23/03:30pm 25.2 23.3 13.1 47 7.0 NNE 15 19 8 10 1017.3 1017.3 0.0
23/03:00pm 25.2 23.1 13.7 49 6.7 NNE 17 20 9 11 1017.4 1017.4 0.0
23/02:30pm 25.3 23.6 13.5 48 6.9 NNE 15 20 8 11 1017.7 1017.7 0.0
23/02:00pm 26.1 24.4 14.6 49 6.9 NNE 17 20 9 11 1017.8 1017.8 0.0
23/01:30pm 25.5 23.5 14.0 49 6.8 NNE 17 20 9 11 1018.2 1018.2 0.0
23/01:00pm 25.3 23.5 14.4 50 6.5 NNE 17 22 9 12 1018.5 1018.5 0.0
23/12:30pm 25.0 23.2 14.5 52 6.2 NNE 17 24 9 13 1018.8 1018.8 0.0
23/12:00pm 26.3 25.2 16.3 54 6.1 NE 17 20 9 11 1019.2 1019.2 0.0
23/11:30am 25.4 23.9 15.4 54 6.0 NNE 17 22 9 12 1019.4 1019.4 0.0
23/11:00am 24.7 22.9 14.5 53 6.0 NNE 17 22 9 12 1019.9 1019.9 0.0
23/10:30am 25.7 25.4 15.4 53 6.2 NNE 11 19 6 10 1020.4 1020.4 0.0
23/10:00am 23.9 23.6 15.4 59 5.1 NNE 11 15 6 8 1020.6 1020.6 0.0
23/09:30am 24.0 25.1 16.5 63 4.6 NW 6 11 3 6 1020.8 1020.8 0.0
23/09:00am 22.9 23.8 16.2 66 4.1 NNW 6 9 3 5 1020.8 1020.8 0.0
23/08:30am 20.8 22.2 16.4 76 2.7 WSW 4 7 2 4 1020.7 1020.7 0.0
23/08:00am 18.2 20.0 16.4 89 1.1 SW 2 7 1 4 1020.5 1020.5 0.0
23/07:30am 16.3 17.0 15.5 95 0.5 WSW 6 7 3 4 1020.1 1020.1 0.0
23/07:00am 14.5 14.3 13.7 95 0.4 W 7 7 4 4 1019.6 1019.6 0.0
23/06:30am 13.1 13.3 12.0 93 0.6 SW 2 6 1 3 1019.4 1019.4 0.0
23/06:00am 14.1 13.9 13.0 93 0.6 S 6 7 3 4 1019.1 1019.1 0.0
23/05:30am 13.4 14.0 12.0 91 0.8 CALM 0 0 0 0 1018.9 1018.9 0.0
23/05:00am 14.1 14.9 12.7 91 0.8 CALM 0 0 0 0 1018.7 1018.7 0.0
23/04:30am 14.5 15.1 13.2 92 0.7 SSE 2 6 1 3 1018.7 1018.7 0.0
23/04:00am 14.7 15.8 13.4 92 0.7 CALM 0 4 0 2 1018.6 1018.6 0.0
23/03:30am 14.3 14.7 12.5 89 1.0 S 2 7 1 4 1018.6 1018.6 0.0
23/03:00am 15.3 16.2 14.0 92 0.7 SSE 2 7 1 4 1018.7 1018.7 0.0
23/02:30am 15.1 16.2 13.5 90 0.9 CALM 0 0 0 0 1018.6 1018.6 0.0
23/02:00am 15.7 17.0 14.2 91 0.8 CALM 0 0 0 0 1018.8 1018.8 0.0
23/01:30am 16.2 16.6 14.7 91 0.9 WSW 6 7 3 4 1019.0 1019.0 0.0
23/01:00am 16.9 18.6 15.2 90 1.0 CALM 0 0 0 0 1019.3 1019.3 0.0
23/12:30am 16.3 17.7 14.3 88 1.1 CALM 0 0 0 0 1019.7 1019.7 0.0
23/12:00am 16.7 18.1 14.5 87 1.3 CALM 0 0 0 0 1019.9 1019.9 0.0
 
Date/Time
EST
Temp
°C
App
Temp
°C
Dew
Point
°C
Rel
Hum
%
Delta-T
°C
Wind Press
QNH
hPa
Press
MSL
hPa
Rain since
9am
mm
Dir  Spd
km/h
Gust
km/h
Spd
kts
Gust
kts
22/11:30pm 17.9 19.9 15.9 88 1.2 CALM 0 0 0 0 1019.9 1019.9 0.0
22/11:00pm 17.6 19.4 15.6 88 1.2 CALM 0 0 0 0 1019.7 1019.7 0.0
22/10:30pm 17.8 19.7 15.8 88 1.2 CALM 0 0 0 0 1019.5 1019.5 0.0
22/10:00pm 18.4 20.4 16.0 86 1.4 CALM 0 0 0 0 1019.4 1019.4 0.0
22/09:30pm 18.8 19.7 16.0 84 1.7 N 6 7 3 4 1019.3 1019.3 0.0
22/09:00pm 20.0 20.8 17.2 84 1.7 NNE 9 13 5 7 1019.2 1019.2 0.0
22/08:30pm 19.9 20.6 17.1 84 1.7 NNE 9 13 5 7 1019.0 1019.0 0.0
22/08:00pm 20.0 20.8 17.2 84 1.7 NNE 9 11 5 6 1018.8 1018.8 0.0
22/07:30pm 20.5 20.8 17.1 81 2.1 NNE 11 15 6 8 1018.5 1018.5 0.0
22/07:00pm 20.7 21.0 16.9 79 2.3 NNE 11 15 6 8 1018.2 1018.2 0.0
22/06:30pm 21.1 20.9 16.7 76 2.7 N 13 17 7 9 1017.8 1017.8 0.0
22/06:00pm 21.6 21.1 16.8 74 2.9 NNE 15 20 8 11 1017.5 1017.5 0.0
22/05:30pm 22.2 21.5 16.5 70 3.5 NNE 15 20 8 11 1017.1 1017.1 0.0
22/05:00pm 23.0 22.0 16.5 67 4.0 NNE 17 24 9 13 1016.9 1016.9 0.0
22/04:30pm 23.6 22.7 16.9 66 4.1 NNE 17 24 9 13 1016.5 1016.5 0.0
22/04:00pm 23.9 22.4 16.2 62 4.7 NNE 19 26 10 14 1016.3 1016.3 0.0
22/03:30pm 24.0 22.2 16.0 61 4.9 NNE 20 30 11 16 1016.3 1016.3 0.0
22/03:00pm 24.4 22.8 16.6 61 4.8 NE 20 26 11 14 1016.3 1016.3 0.0
22/02:30pm 24.4 22.8 16.4 61 4.9 NNE 20 28 11 15 1016.3 1016.3 0.0
22/02:00pm 24.5 22.8 16.2 60 5.1 NNE 20 30 11 16 1016.5 1016.5 0.0
22/01:30pm 24.7 22.9 15.9 58 5.3 NNE 20 26 11 14 1016.9 1016.9 0.0
22/01:00pm 25.1 24.2 16.8 60 5.1 NNE 17 26 9 14 1017.2 1017.2 0.0
22/12:30pm 24.8 23.6 16.0 58 5.4 NNE 17 22 9 12 1017.7 1017.7 0.0
22/12:00pm 25.3 24.5 17.0 60 5.1 NNE 17 24 9 13 1018.2 1018.2 0.0
22/11:30am 24.3 23.3 16.6 62 4.7 NNE 17 22 9 12 1018.7 1018.7 0.0
22/11:00am 24.2 23.5 16.5 62 4.7 NNE 15 20 8 11 1019.1 1019.1 0.0
22/10:30am 23.9 23.1 16.2 62 4.7 NNE 15 20 8 11 1019.4 1019.4 0.0
22/10:00am 23.3 23.2 16.1 64 4.4 NNE 11 17 6 9 1019.6 1019.6 0.0
22/09:30am 22.3 22.2 15.9 67 3.9 NNE 11 15 6 8 1019.6 1019.6 0.0
22/09:00am 22.0 23.2 15.8 68 3.7 NNE 4 7 2 4 1019.7 1019.7 0.0
22/08:30am 19.8 20.1 14.4 71 3.1 N 6 7 3 4 1019.7 1019.7 0.0
22/08:00am 18.6 19.6 14.3 76 2.5 SE 2 7 1 4 1019.6 1019.6 0.0
22/07:30am 15.7 16.8 13.4 86 1.3 CALM 0 0 0 0 1019.4 1019.4 0.0
22/07:00am 13.7 13.7 12.3 91 0.8 S 4 7 2 4 1019.3 1019.3 0.0
22/06:30am 12.7 12.3 11.1 90 0.8 SSW 4 7 2 4 1019.0 1019.0 0.0
22/06:00am 12.8 12.4 11.2 90 0.8 SW 4 7 2 4 1018.7 1018.7 0.0
22/05:30am 13.1 12.4 11.5 90 0.8 SW 6 7 3 4 1018.5 1018.5 0.0
22/05:00am 12.8 13.0 10.7 87 1.1 CALM 0 0 0 0 1018.2 1018.2 0.0
22/04:30am 13.0 12.3 10.0 82 1.5 SSE 4 9 2 5 1017.9 1017.9 0.0
22/04:00am 14.5 13.9 12.4 87 1.1 S 7 9 4 5 1017.8 1017.8 0.0
22/03:30am 14.2 14.7 11.5 84 1.4 CALM 0 0 0 0 1017.5 1017.5 0.0
22/03:00am 14.1 14.2 11.6 85 1.3 W 2 7 1 4 1017.5 1017.5 0.0
22/02:30am 14.9 15.3 11.3 79 1.9 CALM 0 0 0 0 1017.5 1017.5 0.0
22/02:00am 15.2 14.7 12.2 82 1.6 S 6 6 3 3 1018.0 1018.0 0.0
22/01:30am 14.7 14.5 11.8 83 1.6 SW 4 7 2 4 1018.2 1018.2 0.0
22/01:00am 14.8 14.6 11.8 82 1.6 SW 4 7 2 4 1018.3 1018.3 0.0
22/12:30am 15.2 14.7 12.0 81 1.7 WSW 6 7 3 4 1018.7 1018.7 0.0
22/12:00am 15.3 15.2 12.1 81 1.7 WSW 4 7 2 4 1019.0 1019.0 0.0
 
Date/Time
EST
Temp
°C
App
Temp
°C
Dew
Point
°C
Rel
Hum
%
Delta-T
°C
Wind Press
QNH
hPa
Press
MSL
hPa
Rain since
9am
mm
Dir  Spd
km/h
Gust
km/h
Spd
kts
Gust
kts
21/11:30pm 15.5 15.1 12.4 82 1.7 WSW 6 9 3 5 1019.1 1019.1 0.0
21/11:00pm 14.7 14.2 12.0 84 1.5 WSW 6 7 3 4 1019.2 1019.2 0.0
21/10:30pm 14.9 14.3 12.2 84 1.5 WSW 7 9 4 5 1019.2 1019.2 0.0
21/10:00pm 14.7 15.2 11.7 82 1.6 CALM 0 6 0 3 1019.2 1019.2 0.0
21/09:30pm 14.8 15.2 11.4 80 1.8 CALM 0 0 0 0 1019.3 1019.3 0.0
21/09:00pm 15.3 15.9 11.9 80 1.8 CALM 0 0 0 0 1019.4 1019.4 0.0
21/08:30pm 16.2 16.9 12.2 77 2.2 CALM 0 0 0 0 1019.4 1019.4 0.0
21/08:00pm 16.8 16.5 12.7 77 2.3 NNE 6 7 3 4 1018.9 1018.9 0.0
21/07:30pm 17.2 16.8 12.3 73 2.7 N 6 7 3 4 1018.7 1018.7 0.0
21/07:00pm 17.2 17.8 11.9 71 2.9 CALM 0 0 0 0 1018.4 1018.4 0.0
21/06:30pm 18.4 19.2 12.4 68 3.3 CALM 0 0 0 0 1018.2 1018.2 0.0
21/06:00pm 20.0 18.9 13.0 64 4.0 N 11 15 6 8 1017.9 1017.9 0.0
21/05:30pm 21.0 19.1 12.9 60 4.6 NNE 15 20 8 11 1017.5 1017.5 0.0
21/05:00pm 21.9 20.3 12.7 56 5.2 NNE 13 19 7 10 1017.6 1017.6 0.0

Other Formats:

Comma delimited format used in spreadsheet applications
http://www.bom.gov.au/fwo/IDQ60801/IDQ60801.95369.axf

JavaScript Object Notation format (JSON) in row-major order
http://www.bom.gov.au/fwo/IDQ60801/IDQ60801.95369.json